Time;durP1;ratioP1;P1;durP2;ratioP2;P2;SDS_P1;SDS_P2;PMS_P1;PMS_P2;Temp;Humidity;BMP_temperature;BMP_pressure;BME280_temperature;BME280_humidity;BME280_pressure;Samples;Min_cycle;Max_cycle;Signal;HPM_P1;HPM_P2
2021/01/19 00:00:07;;;;;;;4.55;0.52;;;17.20;45.10;;;;;;5067601;28;20037;-58
2021/01/19 00:02:41;;;;;;;4.75;1.05;;;17.20;45.10;;;;;;5067446;28;20057;-56
2021/01/19 00:05:08;;;;;;;4.80;0.30;;;17.20;45.10;;;;;;5069858;28;20752;-57
2021/01/19 00:07:35;;;;;;;7.10;0.47;;;17.20;45.10;;;;;;5068580;28;20531;-56
2021/01/19 00:10:04;;;;;;;5.25;0.65;;;17.20;45.10;;;;;;5067038;28;20060;-57
2021/01/19 00:12:30;;;;;;;3.30;0.50;;;17.20;45.10;;;;;;5065817;28;20044;-57
2021/01/19 00:14:57;;;;;;;2.25;0.52;;;17.20;45.10;;;;;;5068929;28;20417;-56
2021/01/19 00:17:24;;;;;;;4.25;0.52;;;17.20;45.20;;;;;;5069298;28;20174;-56
2021/01/19 00:19:51;;;;;;;1.73;0.50;;;17.20;45.30;;;;;;5068150;28;20043;-56
2021/01/19 00:22:17;;;;;;;3.42;0.28;;;17.20;45.30;;;;;;5066685;28;20047;-56
2021/01/19 00:24:44;;;;;;;3.17;0.38;;;17.10;45.20;;;;;;5064056;28;20041;-58
2021/01/19 00:27:11;;;;;;;1.88;0.38;;;17.20;45.30;;;;;;5066838;28;20611;-59
2021/01/19 00:29:37;;;;;;;4.90;0.60;;;17.10;45.30;;;;;;5068887;28;20047;-58
2021/01/19 00:32:04;;;;;;;1.70;0.20;;;17.20;45.50;;;;;;5069331;28;20049;-57
2021/01/19 00:34:31;;;;;;;2.00;0.50;;;17.10;45.60;;;;;;5066616;28;20068;-57
2021/01/19 00:36:58;;;;;;;2.28;0.20;;;17.20;45.70;;;;;;5066514;28;20490;-56
2021/01/19 00:39:25;;;;;;;3.70;0.65;;;17.10;45.60;;;;;;5066636;28;20049;-57
2021/01/19 00:41:52;;;;;;;4.63;0.38;;;17.10;45.60;;;;;;5067355;28;20036;-58
2021/01/19 00:44:18;;;;;;;3.03;0.60;;;17.20;45.60;;;;;;5068445;28;20044;-60
2021/01/19 00:46:45;;;;;;;4.47;0.47;;;17.10;45.60;;;;;;5057064;28;20061;-58
2021/01/19 00:49:12;;;;;;;3.25;0.32;;;17.20;45.60;;;;;;5058669;28;20044;-59
2021/01/19 00:51:38;;;;;;;4.80;0.55;;;17.20;45.60;;;;;;5064260;28;20485;-58
2021/01/19 00:54:06;;;;;;;5.20;0.40;;;17.10;45.60;;;;;;5053537;28;20072;-57
2021/01/19 00:56:37;;;;;;;1.70;0.10;;;17.10;45.60;;;;;;5066631;28;20056;-59
2021/01/19 00:59:04;;;;;;;7.72;0.40;;;17.10;45.70;;;;;;5061415;28;20571;-56
2021/01/19 01:01:31;;;;;;;3.03;0.10;;;17.10;45.50;;;;;;5059424;28;20143;-55
2021/01/19 01:03:57;;;;;;;2.00;0.50;;;17.10;45.40;;;;;;5054401;28;20098;-54
2021/01/19 01:06:24;;;;;;;2.28;0.32;;;17.10;45.50;;;;;;5053507;28;20397;-56
2021/01/19 01:08:51;;;;;;;1.65;0.40;;;17.10;45.50;;;;;;5051013;28;20040;-57
2021/01/19 01:11:19;;;;;;;5.18;0.20;;;17.10;45.40;;;;;;5057175;28;20037;-57
2021/01/19 01:13:45;;;;;;;1.25;0.38;;;17.10;45.30;;;;;;5056295;28;20049;-56
2021/01/19 01:16:13;;;;;;;2.15;0.40;;;17.10;45.30;;;;;;5054879;28;20076;-58
2021/01/19 01:18:40;;;;;;;5.43;0.32;;;17.10;45.30;;;;;;5055289;28;20578;-59
2021/01/19 01:21:10;;;;;;;2.75;0.20;;;17.10;45.40;;;;;;5053271;28;20106;-58
2021/01/19 01:23:37;;;;;;;4.25;0.40;;;17.10;45.30;;;;;;5064162;28;20062;-58
2021/01/19 01:26:03;;;;;;;6.18;0.22;;;17.10;45.20;;;;;;5056563;28;20052;-57
2021/01/19 01:28:31;;;;;;;3.53;0.20;;;17.10;45.00;;;;;;5055514;28;20413;-59
2021/01/19 01:30:57;;;;;;;4.43;0.20;;;17.10;45.00;;;;;;5050189;28;20611;-58
2021/01/19 01:33:24;;;;;;;2.30;0.30;;;17.10;45.10;;;;;;5052886;28;20052;-57
2021/01/19 01:35:51;;;;;;;4.95;0.43;;;17.10;45.10;;;;;;5050464;28;20071;-59
2021/01/19 01:38:17;;;;;;;8.73;0.40;;;17.10;45.10;;;;;;5058594;28;20056;-58
2021/01/19 01:40:44;;;;;;;2.30;0.32;;;17.10;45.20;;;;;;5061140;28;20571;-57
2021/01/19 01:43:13;;;;;;;4.13;0.20;;;17.10;45.10;;;;;;5059359;28;20064;-57
2021/01/19 01:45:41;;;;;;;1.75;0.22;;;17.10;45.10;;;;;;5060489;28;20851;-61
2021/01/19 01:48:09;;;;;;;4.00;0.10;;;17.10;45.10;;;;;;5060560;28;20051;-58
2021/01/19 01:50:37;;;;;;;2.60;0.40;;;17.10;45.20;;;;;;5056016;28;20606;-59
2021/01/19 01:53:04;;;;;;;3.42;0.20;;;17.00;45.10;;;;;;5059281;28;20140;-59
2021/01/19 01:55:31;;;;;;;3.50;0.55;;;17.00;45.00;;;;;;5056537;28;20198;-60
2021/01/19 01:57:57;;;;;;;3.20;0.35;;;17.10;45.00;;;;;;5057877;28;20444;-58
2021/01/19 02:00:24;;;;;;;0.90;0.63;;;17.00;45.00;;;;;;5055255;28;20032;-58
2021/01/19 02:02:53;;;;;;;2.50;0.50;;;17.00;45.00;;;;;;5056042;28;20809;-58
2021/01/19 02:05:20;;;;;;;1.95;0.25;;;17.00;45.20;;;;;;5061566;28;20060;-59
2021/01/19 02:08:06;;;;;;;1.27;0.40;;;17.00;45.30;;;;;;5058411;28;20045;-59
2021/01/19 02:10:43;;;;;;;3.30;0.10;;;17.00;45.20;;;;;;5060187;28;20127;-57
2021/01/19 02:13:16;;;;;;;1.85;0.60;;;17.00;45.20;;;;;;5060408;28;20483;-58
2021/01/19 02:15:48;;;;;;;0.52;0.52;;;17.00;45.30;;;;;;5062236;28;20041;-58
2021/01/19 02:18:28;;;;;;;3.70;0.10;;;17.00;45.30;;;;;;5058240;28;20513;-56
2021/01/19 02:21:12;;;;;;;3.55;1.00;;;17.00;45.20;;;;;;5049119;28;20049;-56
2021/01/19 02:23:47;;;;;;;1.83;0.28;;;17.00;45.20;;;;;;5053689;28;20532;-59
2021/01/19 02:27:02;;;;;;;3.58;0.45;;;17.00;45.30;;;;;;5053271;28;20140;-59
2021/01/19 02:29:54;;;;;;;4.10;0.13;;;17.00;45.30;;;;;;5061859;28;20049;-59
2021/01/19 02:32:30;;;;;;;0.60;0.10;;;17.00;45.40;;;;;;5053614;28;20501;-59
2021/01/19 02:35:04;;;;;;;2.10;0.30;;;16.90;45.30;;;;;;5053195;28;20092;-59
2021/01/19 02:37:37;;;;;;;4.72;0.40;;;16.90;45.30;;;;;;5055430;28;20049;-59
2021/01/19 02:40:06;;;;;;;3.42;0.20;;;16.90;45.30;;;;;;5060370;28;20442;-60
2021/01/19 02:42:40;;;;;;;7.72;0.65;;;17.00;45.40;;;;;;5051444;28;20044;-60
2021/01/19 02:45:09;;;;;;;4.50;0.60;;;17.00;45.40;;;;;;5049558;28;20532;-58
2021/01/19 02:47:36;;;;;;;3.55;0.95;;;16.90;45.40;;;;;;5052646;28;20048;-58
2021/01/19 02:50:07;;;;;;;3.75;0.28;;;16.90;45.30;;;;;;5057198;28;20096;-57
2021/01/19 02:52:35;;;;;;;4.65;0.63;;;16.90;45.30;;;;;;5051695;28;20060;-57
2021/01/19 02:55:03;;;;;;;3.75;0.20;;;16.90;45.30;;;;;;5054423;28;20865;-59
2021/01/19 02:57:47;;;;;;;1.98;0.10;;;17.00;45.20;;;;;;5050951;28;20094;-59
2021/01/19 03:00:18;;;;;;;4.15;0.10;;;17.00;45.30;;;;;;5058191;28;20079;-58
2021/01/19 03:02:47;;;;;;;2.15;0.10;;;16.90;45.10;;;;;;5047905;28;20037;-56
2021/01/19 03:05:14;;;;;;;2.70;0.13;;;16.90;45.10;;;;;;5055527;28;20090;-57
2021/01/19 03:07:43;;;;;;;3.05;0.43;;;16.90;45.20;;;;;;5055644;28;20052;-59
2021/01/19 03:10:11;;;;;;;1.58;0.10;;;16.90;45.20;;;;;;5052033;28;20068;-56
2021/01/19 03:12:42;;;;;;;2.95;0.30;;;16.90;45.10;;;;;;5053604;28;20044;-56
2021/01/19 03:15:09;;;;;;;1.40;0.20;;;16.90;45.10;;;;;;5051489;28;20417;-59
2021/01/19 03:17:36;;;;;;;2.05;0.20;;;16.90;45.20;;;;;;5053264;28;20429;-59
2021/01/19 03:20:05;;;;;;;2.75;0.10;;;16.90;45.80;;;;;;5052947;28;20049;-58
2021/01/19 03:22:31;;;;;;;3.53;0.22;;;16.90;45.20;;;;;;5054433;28;20057;-59
2021/01/19 03:24:58;;;;;;;1.45;0.10;;;16.90;45.10;;;;;;5055416;28;20448;-59
2021/01/19 03:27:25;;;;;;;2.40;0.10;;;16.90;45.00;;;;;;5057696;28;20052;-59
2021/01/19 03:29:51;;;;;;;2.22;0.10;;;16.90;44.90;;;;;;5057119;28;20596;-56
2021/01/19 03:32:18;;;;;;;2.05;0.45;;;16.90;44.90;;;;;;5070349;28;20102;-58
2021/01/19 03:34:44;;;;;;;1.88;0.10;;;16.90;44.90;;;;;;5061645;28;20041;-58
2021/01/19 03:37:12;;;;;;;1.55;0.10;;;16.90;44.90;;;;;;5062566;28;20064;-58
2021/01/19 03:39:38;;;;;;;1.55;0.40;;;17.00;45.00;;;;;;5062075;28;20059;-58
2021/01/19 03:42:05;;;;;;;4.53;0.15;;;16.90;45.00;;;;;;5068173;28;20036;-57
2021/01/19 03:44:32;;;;;;;1.65;0.10;;;16.90;45.00;;;;;;5053482;28;20074;-56
2021/01/19 03:46:58;;;;;;;2.55;0.10;;;16.90;44.90;;;;;;5060349;28;20408;-58
2021/01/19 03:49:25;;;;;;;2.75;0.10;;;16.90;44.90;;;;;;5053467;28;20049;-57
2021/01/19 03:51:51;;;;;;;4.78;0.82;;;16.90;45.00;;;;;;5063177;28;20047;-59
2021/01/19 03:54:19;;;;;;;3.28;1.85;;;16.90;45.00;;;;;;5053938;28;20511;-59
2021/01/19 03:56:46;;;;;;;2.20;0.30;;;16.90;45.00;;;;;;5055610;28;20425;-58
2021/01/19 03:59:13;;;;;;;2.38;0.30;;;16.90;44.90;;;;;;5070529;28;20083;-57
2021/01/19 04:01:41;;;;;;;1.75;0.10;;;16.90;44.90;;;;;;5057750;28;20131;-57
2021/01/19 04:04:09;;;;;;;1.65;0.40;;;16.90;44.90;;;;;;5057691;28;20044;-57
2021/01/19 04:06:35;;;;;;;5.55;0.43;;;16.90;44.90;;;;;;5054721;28;20052;-53
2021/01/19 04:09:02;;;;;;;2.65;0.20;;;16.90;45.00;;;;;;5052438;28;20075;-58
2021/01/19 04:11:30;;;;;;;3.05;0.22;;;16.90;45.00;;;;;;5053143;28;20599;-55
2021/01/19 04:13:56;;;;;;;3.30;0.13;;;16.90;45.00;;;;;;5057700;28;20057;-56
2021/01/19 04:16:23;;;;;;;1.30;0.10;;;16.90;44.90;;;;;;5062314;28;20036;-58
2021/01/19 04:18:49;;;;;;;1.48;0.10;;;16.90;44.90;;;;;;5065878;28;20040;-60
2021/01/19 04:21:16;;;;;;;4.28;0.20;;;16.90;44.90;;;;;;5064880;28;20048;-59
2021/01/19 04:23:42;;;;;;;0.55;0.38;;;16.90;44.90;;;;;;5052094;28;20053;-58
2021/01/19 04:26:09;;;;;;;1.58;0.10;;;16.90;44.90;;;;;;5069151;28;20114;-59
2021/01/19 04:28:36;;;;;;;12.27;0.43;;;16.90;44.90;;;;;;5060025;28;20057;-59
2021/01/19 04:31:04;;;;;;;0.20;0.00;;;16.90;44.80;;;;;;5058820;28;20166;-57
2021/01/19 04:33:30;;;;;;;2.00;0.65;;;16.90;44.80;;;;;;5054169;28;20471;-56
2021/01/19 04:35:57;;;;;;;0.82;0.10;;;16.90;44.70;;;;;;5053046;28;20115;-57
2021/01/19 04:38:23;;;;;;;4.85;0.10;;;16.90;44.80;;;;;;5055847;28;20049;-57
2021/01/19 04:40:50;;;;;;;2.05;0.28;;;16.90;44.80;;;;;;5059593;28;20088;-57
2021/01/19 04:43:17;;;;;;;2.63;0.10;;;16.90;44.80;;;;;;5059368;28;20044;-56
2021/01/19 04:45:46;;;;;;;1.25;0.17;;;16.80;44.90;;;;;;5060121;28;20408;-57
2021/01/19 04:48:13;;;;;;;4.53;0.10;;;16.90;44.90;;;;;;5059133;28;20051;-59
2021/01/19 04:50:40;;;;;;;1.70;0.43;;;16.90;44.90;;;;;;5054437;28;20044;-56
2021/01/19 04:53:13;;;;;;;8.23;0.22;;;16.90;44.90;;;;;;5054485;28;20048;-59
2021/01/19 04:55:52;;;;;;;7.03;0.25;;;16.80;44.90;;;;;;5056277;28;20517;-57
2021/01/19 04:58:22;;;;;;;2.40;0.35;;;16.90;44.90;;;;;;5059732;28;20048;-59
2021/01/19 05:01:04;;;;;;;4.20;0.28;;;16.80;44.90;;;;;;5064679;28;20041;-59
2021/01/19 05:03:39;;;;;;;1.40;0.40;;;16.90;45.00;;;;;;5060589;28;20425;-59
2021/01/19 05:06:35;;;;;;;3.42;0.10;;;16.90;45.00;;;;;;5050400;28;20543;-60
2021/01/19 05:09:09;;;;;;;3.17;0.20;;;16.80;45.00;;;;;;5045873;28;20127;-59
2021/01/19 05:11:49;;;;;;;3.25;0.17;;;16.90;45.10;;;;;;5065659;28;20056;-59
2021/01/19 05:14:19;;;;;;;1.45;0.20;;;16.90;45.10;;;;;;5068990;28;20041;-59
2021/01/19 05:16:48;;;;;;;7.57;0.80;;;16.80;44.90;;;;;;5061132;28;20144;-60
2021/01/19 05:19:16;;;;;;;3.13;0.10;;;16.80;45.00;;;;;;5062908;28;20063;-59
2021/01/19 05:21:45;;;;;;;3.33;0.22;;;16.80;44.90;;;;;;5066373;28;20040;-57
2021/01/19 05:24:11;;;;;;;10.70;0.30;;;16.80;44.90;;;;;;5066338;28;20059;-57
2021/01/19 05:26:40;;;;;;;3.70;0.22;;;16.80;44.90;;;;;;5066622;28;20044;-58
2021/01/19 05:29:07;;;;;;;3.65;0.10;;;16.80;44.80;;;;;;5067696;28;20070;-59
2021/01/19 05:31:34;;;;;;;2.33;0.55;;;16.90;45.00;;;;;;5062367;28;20144;-56
2021/01/19 05:34:17;;;;;;;3.90;0.55;;;16.80;44.90;;;;;;5065570;28;20123;-55
2021/01/19 05:36:46;;;;;;;4.43;0.43;;;16.90;44.90;;;;;;5052405;28;20053;-56
2021/01/19 05:39:17;;;;;;;4.18;0.25;;;16.90;44.90;;;;;;5051927;28;20070;-57
2021/01/19 05:41:45;;;;;;;2.80;0.45;;;16.80;44.80;;;;;;5064439;28;20080;-55
2021/01/19 05:44:17;;;;;;;4.13;0.10;;;16.90;44.90;;;;;;5067923;28;20063;-58
2021/01/19 05:46:48;;;;;;;1.58;0.47;;;16.80;44.80;;;;;;5063307;28;20462;-56
2021/01/19 05:49:19;;;;;;;1.55;0.10;;;16.90;44.90;;;;;;5063335;28;20201;-56
2021/01/19 05:51:47;;;;;;;4.95;0.20;;;16.90;44.90;;;;;;5058051;28;20049;-58
2021/01/19 05:54:26;;;;;;;2.80;0.17;;;16.80;44.80;;;;;;5057394;28;20070;-58
2021/01/19 05:57:03;;;;;;;3.35;0.43;;;16.80;44.80;;;;;;5052196;28;20052;-57
2021/01/19 05:59:32;;;;;;;2.78;0.10;;;16.80;44.80;;;;;;5066194;28;20045;-58
2021/01/19 06:02:00;;;;;;;3.47;0.10;;;16.80;44.80;;;;;;5064775;28;20032;-56
2021/01/19 06:04:37;;;;;;;7.00;0.50;;;16.80;44.90;;;;;;5064889;28;20508;-57
2021/01/19 06:07:04;;;;;;;3.55;0.25;;;16.90;45.00;;;;;;5064243;28;20068;-58
2021/01/19 06:09:32;;;;;;;3.38;0.10;;;16.80;45.00;;;;;;5062461;28;20044;-56
2021/01/19 06:11:58;;;;;;;2.72;0.10;;;16.80;45.00;;;;;;5065069;28;20103;-59
2021/01/19 06:14:27;;;;;;;3.85;0.20;;;16.80;45.00;;;;;;5066817;28;20516;-57
2021/01/19 06:17:08;;;;;;;0.63;0.10;;;16.80;45.00;;;;;;5064683;28;20044;-57
2021/01/19 06:19:37;;;;;;;11.68;0.25;;;16.80;45.00;;;;;;5064378;28;20049;-57
2021/01/19 06:22:06;;;;;;;6.28;0.98;;;16.80;45.10;;;;;;5066114;28;20123;-54
2021/01/19 06:24:37;;;;;;;3.50;0.13;;;16.90;45.10;;;;;;5065395;28;20060;-53
2021/01/19 06:27:05;;;;;;;3.88;0.30;;;16.80;45.00;;;;;;5063990;28;20059;-55
2021/01/19 06:29:32;;;;;;;5.30;0.60;;;16.80;44.90;;;;;;5066420;28;20127;-53
2021/01/19 06:32:00;;;;;;;1.48;0.20;;;16.80;44.90;;;;;;5066734;28;20037;-53
2021/01/19 06:34:29;;;;;;;3.55;0.17;;;16.80;44.90;;;;;;5062796;28;20428;-54
2021/01/19 06:36:57;;;;;;;3.15;0.10;;;16.80;44.90;;;;;;5064323;28;20120;-55
2021/01/19 06:39:35;;;;;;;0.57;0.10;;;16.80;44.80;;;;;;5065623;28;20041;-52
2021/01/19 06:42:05;;;;;;;2.42;0.10;;;16.80;44.80;;;;;;5063676;28;20051;-55
2021/01/19 06:44:37;;;;;;;2.03;0.10;;;16.80;44.90;;;;;;5065248;28;20064;-57
2021/01/19 06:47:05;;;;;;;4.65;0.45;;;16.80;44.90;;;;;;5065044;28;20186;-57
2021/01/19 06:49:33;;;;;;;4.72;0.10;;;16.80;45.10;;;;;;5060345;28;20083;-56
2021/01/19 06:52:11;;;;;;;1.90;0.15;;;16.80;45.10;;;;;;5065508;28;20058;-57
2021/01/19 06:54:56;;;;;;;5.63;0.30;;;16.90;45.30;;;;;;5062785;28;20041;-58
2021/01/19 06:57:32;;;;;;;4.18;0.15;;;16.80;45.30;;;;;;5060870;28;20075;-56
2021/01/19 07:00:08;;;;;;;6.43;0.50;;;16.80;45.30;;;;;;5063769;28;20052;-58
2021/01/19 07:02:37;;;;;;;1.83;0.10;;;16.80;45.40;;;;;;5068732;28;20055;-58
2021/01/19 07:05:10;;;;;;;3.85;0.45;;;16.80;45.40;;;;;;5069750;28;20106;-58
2021/01/19 07:07:43;;;;;;;5.82;0.10;;;16.80;45.60;;;;;;5066231;28;20044;-58
2021/01/19 07:10:12;;;;;;;1.02;0.35;;;16.80;45.60;;;;;;5068873;28;20508;-58
2021/01/19 07:13:03;;;;;;;3.63;0.30;;;16.80;45.70;;;;;;5069666;28;20481;-58
2021/01/19 07:16:05;;;;;;;1.17;0.10;;;16.80;45.70;;;;;;5068862;28;20048;-56
2021/01/19 07:18:53;;;;;;;3.80;0.20;;;16.80;45.70;;;;;;5057035;28;20048;-57
2021/01/19 07:21:21;;;;;;;3.58;0.52;;;16.80;45.90;;;;;;5068814;28;20098;-57
2021/01/19 07:24:15;;;;;;;1.33;0.10;;;16.80;46.00;;;;;;5069354;28;20048;-57
2021/01/19 07:26:45;;;;;;;3.45;0.20;;;16.80;46.00;;;;;;5066963;28;20573;-58
2021/01/19 07:29:14;;;;;;;2.47;0.20;;;16.80;46.20;;;;;;5068198;28;20496;-58
2021/01/19 07:31:41;;;;;;;1.65;0.10;;;16.80;46.20;;;;;;5066576;28;21018;-57
2021/01/19 07:34:10;;;;;;;0.50;0.10;;;16.80;46.20;;;;;;5067591;28;20049;-57
2021/01/19 07:36:37;;;;;;;4.03;0.17;;;16.80;46.20;;;;;;5066766;28;20076;-58
2021/01/19 07:39:15;;;;;;;3.05;0.82;;;16.80;46.20;;;;;;5067033;28;20111;-58
2021/01/19 07:41:42;;;;;;;0.50;0.10;;;16.90;46.40;;;;;;5068872;28;20045;-56
2021/01/19 07:44:22;;;;;;;2.13;0.30;;;16.90;46.30;;;;;;5070204;28;20055;-58
2021/01/19 07:46:49;;;;;;;3.25;0.10;;;16.90;46.30;;;;;;5067231;28;20059;-59
2021/01/19 07:49:17;;;;;;;1.73;0.30;;;16.80;46.30;;;;;;5061662;28;20052;-58
2021/01/19 07:51:45;;;;;;;2.28;0.40;;;16.90;46.30;;;;;;5056820;28;20045;-58
2021/01/19 07:54:12;;;;;;;0.95;0.10;;;16.90;46.40;;;;;;5062876;28;20049;-57
2021/01/19 07:56:41;;;;;;;4.85;0.10;;;16.80;46.30;;;;;;5065974;28;20055;-57
2021/01/19 07:59:16;;;;;;;3.70;0.10;;;16.80;46.40;;;;;;5059671;28;20569;-58
2021/01/19 08:01:53;;;;;;;1.35;0.08;;;16.90;46.50;;;;;;5056234;28;20053;-58
2021/01/19 08:04:28;;;;;;;3.35;0.30;;;16.80;46.50;;;;;;5056917;28;20056;-58
2021/01/19 08:06:54;;;;;;;1.50;0.20;;;16.80;46.50;;;;;;5057767;28;20123;-59
2021/01/19 08:09:21;;;;;;;2.03;0.10;;;16.90;47.10;;;;;;5049105;28;20037;-57
2021/01/19 08:12:04;;;;;;;1.65;0.17;;;16.90;46.50;;;;;;5056503;28;20739;-57
2021/01/19 08:14:35;;;;;;;2.03;0.10;;;16.90;46.50;;;;;;5064187;28;20040;-58
2021/01/19 08:17:04;;;;;;;2.45;0.10;;;16.90;46.60;;;;;;5056647;28;20472;-58
2021/01/19 08:19:41;;;;;;;3.95;0.20;;;16.90;46.60;;;;;;5058803;28;20398;-58
2021/01/19 08:22:08;;;;;;;7.43;0.20;;;16.90;46.50;;;;;;5054350;28;20056;-58
2021/01/19 08:24:35;;;;;;;1.35;0.20;;;16.80;46.50;;;;;;5055062;28;20143;-58
2021/01/19 08:27:03;;;;;;;0.73;0.30;;;16.90;46.60;;;;;;5058640;28;20053;-60
2021/01/19 08:29:30;;;;;;;1.38;0.10;;;16.80;46.60;;;;;;5058639;28;20044;-56
2021/01/19 08:31:59;;;;;;;7.00;0.10;;;16.90;46.60;;;;;;5062720;28;20053;-57
2021/01/19 08:34:27;;;;;;;1.58;0.15;;;16.90;46.60;;;;;;5060666;28;20047;-57
2021/01/19 08:36:55;;;;;;;4.47;0.30;;;16.80;46.60;;;;;;5057609;28;20078;-57
2021/01/19 08:39:22;;;;;;;0.95;0.10;;;16.90;46.60;;;;;;5065108;28;20048;-57
2021/01/19 08:41:52;;;;;;;1.10;0.10;;;16.80;46.50;;;;;;5052288;28;20541;-57
2021/01/19 08:44:20;;;;;;;1.38;0.10;;;16.90;46.60;;;;;;5058984;28;20128;-57
2021/01/19 08:46:49;;;;;;;2.83;0.40;;;16.90;46.60;;;;;;5060721;28;20048;-56
2021/01/19 08:49:17;;;;;;;1.55;0.20;;;16.80;46.60;;;;;;5060140;28;20056;-57
2021/01/19 08:51:47;;;;;;;3.30;0.22;;;16.90;46.80;;;;;;5055626;28;20056;-59
2021/01/19 08:54:14;;;;;;;2.70;0.10;;;16.90;46.90;;;;;;5053411;28;20099;-58
2021/01/19 08:56:43;;;;;;;5.28;0.20;;;16.90;47.10;;;;;;5055612;28;20159;-56
2021/01/19 08:59:11;;;;;;;1.80;0.17;;;16.90;47.50;;;;;;5054807;28;20040;-58
2021/01/19 09:01:48;;;;;;;3.00;0.30;;;16.90;48.00;;;;;;5034633;28;20040;-56
2021/01/19 09:04:22;;;;;;;2.65;0.20;;;16.90;48.20;;;;;;5049653;28;20127;-55
2021/01/19 09:06:50;;;;;;;2.80;0.85;;;16.90;48.30;;;;;;5049977;28;20072;-54
2021/01/19 09:09:20;;;;;;;3.05;0.25;;;16.90;48.20;;;;;;5051027;28;20130;-59
2021/01/19 09:11:47;;;;;;;2.00;0.32;;;16.90;48.20;;;;;;5051382;28;20048;-57
2021/01/19 09:14:15;;;;;;;2.40;0.20;;;16.90;48.10;;;;;;5049486;28;20547;-56
2021/01/19 09:16:42;;;;;;;1.08;0.20;;;16.90;48.10;;;;;;5057398;28;20492;-58
2021/01/19 09:19:10;;;;;;;7.03;0.20;;;16.90;48.10;;;;;;5057782;28;20116;-58
2021/01/19 09:21:39;;;;;;;4.30;0.40;;;16.90;48.00;;;;;;5059362;28;20040;-56
2021/01/19 09:24:12;;;;;;;0.75;0.20;;;16.90;48.10;;;;;;5058537;28;20120;-56
2021/01/19 09:26:55;;;;;;;3.35;0.40;;;16.90;48.10;;;;;;5063122;28;20103;-58
2021/01/19 09:29:23;;;;;;;2.25;0.10;;;16.90;48.00;;;;;;5054014;28;20041;-58
2021/01/19 09:31:51;;;;;;;2.08;0.30;;;16.90;48.70;;;;;;5062843;28;20093;-58
2021/01/19 09:34:21;;;;;;;2.08;0.25;;;16.90;48.10;;;;;;5059919;28;20041;-58
2021/01/19 09:36:49;;;;;;;4.43;0.10;;;16.90;48.10;;;;;;5056572;28;20037;-57
2021/01/19 09:39:24;;;;;;;2.88;0.10;;;16.80;48.00;;;;;;5062739;28;20072;-58
2021/01/19 09:41:51;;;;;;;2.20;0.20;;;16.90;48.10;;;;;;5057090;28;20052;-57
2021/01/19 09:44:18;;;;;;;1.92;0.30;;;16.90;48.10;;;;;;5061592;28;20496;-56
2021/01/19 09:46:46;;;;;;;1.23;0.10;;;16.90;48.10;;;;;;5057086;28;20052;-54
2021/01/19 09:49:17;;;;;;;5.20;0.90;;;16.90;48.00;;;;;;5059416;28;20530;-53
2021/01/19 09:51:45;;;;;;;3.80;0.20;;;16.90;48.10;;;;;;5057614;28;20048;-54
2021/01/19 09:54:12;;;;;;;4.03;0.63;;;16.90;48.00;;;;;;5051717;28;20404;-56
2021/01/19 09:56:38;;;;;;;4.65;0.28;;;16.90;48.00;;;;;;5052682;28;20048;-55
2021/01/19 09:59:07;;;;;;;1.17;0.30;;;16.90;48.00;;;;;;5055516;28;20516;-54
2021/01/19 10:01:34;;;;;;;1.30;0.10;;;16.90;48.00;;;;;;5053938;28;20055;-53
2021/01/19 10:04:01;;;;;;;0.95;0.20;;;16.90;48.00;;;;;;5058504;28;20085;-54
2021/01/19 10:06:27;;;;;;;3.25;0.30;;;16.90;47.90;;;;;;5055069;28;20059;-52
2021/01/19 10:08:57;;;;;;;2.55;0.17;;;16.90;47.90;;;;;;5050558;28;20564;-54
2021/01/19 10:11:31;;;;;;;3.67;0.98;;;16.90;47.90;;;;;;5060930;28;20044;-53
2021/01/19 10:14:09;;;;;;;2.60;0.40;;;16.90;47.80;;;;;;5063492;28;20044;-53
2021/01/19 10:16:36;;;;;;;4.13;0.57;;;16.90;47.90;;;;;;5059632;28;20037;-52
2021/01/19 10:19:03;;;;;;;1.55;0.30;;;16.90;47.90;;;;;;5059057;28;20106;-53
2021/01/19 10:21:31;;;;;;;2.70;0.65;;;16.90;48.10;;;;;;5058685;28;20131;-55
2021/01/19 10:23:59;;;;;;;7.05;0.20;;;16.90;48.20;;;;;;5052786;28;20069;-54
2021/01/19 10:26:30;;;;;;;2.38;0.30;;;16.90;48.20;;;;;;5051709;28;20105;-62
2021/01/19 10:28:57;;;;;;;3.35;0.40;;;16.90;48.40;;;;;;5064590;28;20135;-54
2021/01/19 10:31:27;;;;;;;3.13;0.82;;;16.90;48.50;;;;;;5060360;28;20076;-54
2021/01/19 10:34:00;;;;;;;2.80;0.50;;;16.90;48.60;;;;;;5061959;28;20148;-48
2021/01/19 10:36:29;;;;;;;1.30;0.13;;;16.90;48.70;;;;;;5057900;28;20110;-53
2021/01/19 10:39:06;;;;;;;3.42;0.80;;;16.90;48.70;;;;;;5061231;28;20056;-54
2021/01/19 10:41:33;;;;;;;5.13;0.30;;;16.90;48.80;;;;;;5055577;28;20167;-70
2021/01/19 10:44:01;;;;;;;1.17;0.25;;;16.90;48.70;;;;;;5061166;28;20048;-57
2021/01/19 10:46:31;;;;;;;3.83;0.85;;;16.90;48.90;;;;;;5057432;28;20052;-54
2021/01/19 10:49:05;;;;;;;4.10;0.43;;;16.90;49.00;;;;;;5059109;28;20036;-53
2021/01/19 10:51:33;;;;;;;2.95;0.80;;;17.00;49.10;;;;;;5059584;28;20079;-48
2021/01/19 10:54:10;;;;;;;2.85;0.17;;;17.00;49.10;;;;;;5051773;28;20041;-52
2021/01/19 10:56:38;;;;;;;4.55;0.35;;;17.00;49.20;;;;;;5055683;28;20109;-54
2021/01/19 10:59:06;;;;;;;4.20;0.57;;;17.00;49.10;;;;;;5057086;28;20120;-52
2021/01/19 11:01:34;;;;;;;3.45;0.30;;;17.00;49.10;;;;;;5050034;28;20048;-52
2021/01/19 11:04:02;;;;;;;3.72;0.40;;;17.00;49.10;;;;;;5057053;28;20162;-54
2021/01/19 11:06:30;;;;;;;5.85;0.30;;;17.00;49.10;;;;;;5053076;28;20071;-52
2021/01/19 11:08:57;;;;;;;4.35;0.20;;;17.00;49.10;;;;;;5049945;28;20057;-49
2021/01/19 11:11:26;;;;;;;6.53;0.85;;;17.00;49.70;;;;;;5053674;28;20502;-51
2021/01/19 11:13:56;;;;;;;1.73;0.30;;;17.00;49.10;;;;;;5056902;28;20075;-62
2021/01/19 11:16:28;;;;;;;1.88;0.80;;;17.00;49.10;;;;;;5061211;28;20424;-59
2021/01/19 11:18:55;;;;;;;2.58;0.20;;;17.00;49.10;;;;;;5059837;28;20131;-60
2021/01/19 11:21:21;;;;;;;1.58;0.50;;;17.00;49.10;;;;;;5058711;28;20049;-60
2021/01/19 11:23:48;;;;;;;2.47;0.40;;;17.00;49.00;;;;;;5058464;28;20041;-59
2021/01/19 11:26:16;;;;;;;5.88;0.20;;;17.00;48.90;;;;;;5052702;28;20065;-58
2021/01/19 11:28:44;;;;;;;1.75;0.10;;;17.00;48.70;;;;;;5063475;28;20052;-60
2021/01/19 11:31:10;;;;;;;26.65;1.27;;;17.10;48.70;;;;;;5055952;28;20090;-60
2021/01/19 11:33:37;;;;;;;2.35;0.32;;;17.00;48.50;;;;;;5060823;28;20044;-60
2021/01/19 11:36:05;;;;;;;2.10;0.35;;;17.10;48.50;;;;;;5063597;28;20078;-61
2021/01/19 11:38:31;;;;;;;2.92;0.20;;;17.10;48.40;;;;;;5059748;28;20041;-60
2021/01/19 11:40:58;;;;;;;3.08;0.60;;;17.10;48.30;;;;;;5065397;28;20049;-60
2021/01/19 11:43:25;;;;;;;7.10;0.40;;;17.10;48.30;;;;;;5064030;28;20051;-60
2021/01/19 11:45:53;;;;;;;1.65;0.20;;;17.10;48.20;;;;;;5065516;28;20048;-59
2021/01/19 11:48:20;;;;;;;6.45;0.43;;;17.10;48.20;;;;;;5066621;28;20424;-59
2021/01/19 11:50:46;;;;;;;2.03;0.20;;;17.10;48.10;;;;;;5062824;28;20178;-60
2021/01/19 11:53:14;;;;;;;0.52;0.10;;;17.10;48.00;;;;;;5069597;28;20531;-60
2021/01/19 11:55:42;;;;;;;2.00;0.20;;;17.10;48.00;;;;;;5068645;28;20052;-59
2021/01/19 11:58:09;;;;;;;1.13;0.47;;;17.10;48.00;;;;;;5066553;28;20037;-60
2021/01/19 12:00:36;;;;;;;2.63;0.20;;;17.10;47.90;;;;;;5066546;28;20496;-60
2021/01/19 12:03:04;;;;;;;4.35;0.60;;;17.10;47.90;;;;;;5067300;28;20045;-59
2021/01/19 12:05:30;;;;;;;0.35;0.20;;;17.20;47.90;;;;;;5069744;28;20398;-59
2021/01/19 12:07:57;;;;;;;10.80;0.90;;;17.20;48.10;;;;;;5068941;28;20789;-59
2021/01/19 12:10:24;;;;;;;1.25;0.10;;;17.20;48.00;;;;;;5066579;28;20044;-60
2021/01/19 12:12:51;;;;;;;2.10;0.20;;;17.20;47.90;;;;;;5067109;28;20087;-60
2021/01/19 12:15:20;;;;;;;1.60;0.20;;;17.20;47.90;;;;;;5067312;28;20044;-61
2021/01/19 12:17:47;;;;;;;1.25;1.02;;;17.20;47.80;;;;;;5066980;28;20440;-58
2021/01/19 12:20:15;;;;;;;2.95;0.20;;;17.20;47.90;;;;;;5064108;28;20162;-60
